Alta Vista, CA

9:45 PM PDT on October 31, 2014 (GMT -0700)
Jamacha/Lomita | Change Station
CLOSE
Current Station
Personal Weather Station
Location: SAN DIEGO, CA
Elevation: 383 ft
Nearby Weather Stations

Elev 383 ft 32.72 °N, 117.04 °W | Updated 2 seconds ago

Overcast
Overcast
66.4 °F
Feels Like 66.4 °F
N
1.8
Wind Variable Wind from SW
Gusts 4.0 mph

Today
High -- | Low -- °F
--% Chance of Precip.
Yesterday
High -- | Low -- °F
Precip. -- in
7:05 AM 5:58 PM
Waxing Gibbous, 62% visible
Pressure 29.89 in
Visibility 10.0 miles
Clouds Scattered Clouds 1700 ft
Mostly Cloudy 5500 ft
Dew Point 59 °F
Humidity 77%
Rainfall 0.00 in
Snow Depth Not available.
UV 0 out of 12
Pollen 2.70 out of 12
Air Quality Not available.
Flu Activity Not available.
METAR KSAN 010351Z 20007KT 10SM SCT017 BKN055 20/15 A2989 RMK AO2 SLP121 T02000150

More Conditions Fewer Conditions

Pressure 29.89 in
Visibility 10.0 miles
Clouds Scattered Clouds 1700 ft
Mostly Cloudy 5500 ft
Dew Point 59 °F
Humidity 77%
Rainfall 0.00 in
Snow Depth Not available.
UV 0 out of 12
Pollen 2.70 out of 12
Air Quality Not available.
Flu Activity Not available.
METAR KSAN 010351Z 20007KT 10SM SCT017 BKN055 20/15 A2989 RMK AO2 SLP121 T02000150

More Conditions Fewer Conditions

10-Day Weather Forecast

Almanac

Astronomy

Oct. 31, 2014 Rise Set
Actual Time
Civil Twilight
Nautical Twilight
Astronomical Twilight
Moon
Length of Visible Light
Length of Day
Tomorrow will be .
, % of the Moon is Illuminated

Today's Extremes

State Highs State Lows

Community

WunderPhotos

Upload Photos

1,766,854 photos uploaded!

WunderBlogs® & News

Nearby

Air Quality

  Air Quality AQ Index Pollutant
Not available.

Snow Depth

Station Depth Elevation

Earthquake Activity

City Distance Mag. Time & Date
Minimum magnitude displayed is 2.5.

Coastal Water Temperatures

Place Temperature

Nearby Weather Stations